createdAt,value
2023-03-04T00:00:29.767Z,0.48
2023-03-04T00:04:58.109Z,0.54
2023-03-04T00:09:06.600Z,0.54
2023-03-04T00:13:14.553Z,0.52
2023-03-04T00:17:22.272Z,0.49
2023-03-04T00:21:30.409Z,0.49
2023-03-04T00:25:42.575Z,0.52
2023-03-04T00:29:51.847Z,0.56
2023-03-04T00:33:59.619Z,0.57
2023-03-04T00:38:08.004Z,0.56
2023-03-04T00:42:15.917Z,0.53
2023-03-04T00:46:23.851Z,0.50
2023-03-04T00:50:31.873Z,0.51
2023-03-04T00:54:39.953Z,0.55
2023-03-04T00:58:48.078Z,0.59
2023-03-04T01:02:56.267Z,0.59
2023-03-04T01:07:05.042Z,0.59
2023-03-04T01:11:13.602Z,0.58
2023-03-04T01:15:21.583Z,0.58
2023-03-04T01:19:29.572Z,0.63
2023-03-04T01:23:37.451Z,0.67
2023-03-04T01:27:45.677Z,0.69
2023-03-04T01:31:53.920Z,0.67
2023-03-04T01:36:01.915Z,0.67
2023-03-04T01:40:12.725Z,0.66
2023-03-04T01:44:20.603Z,0.70
2023-03-04T01:48:31.627Z,0.74
2023-03-04T01:52:39.889Z,0.76
2023-03-04T01:56:49.308Z,0.75
2023-03-04T02:00:57.446Z,0.73
2023-03-04T02:05:05.496Z,0.76
2023-03-04T02:09:13.659Z,0.80
2023-03-04T02:13:22.357Z,0.82
2023-03-04T02:17:31.139Z,0.81
2023-03-04T02:21:38.803Z,0.80
2023-03-04T02:25:51.553Z,0.79
2023-03-04T02:30:01.865Z,0.82
2023-03-04T02:34:14.801Z,0.85
2023-03-04T02:38:23.251Z,0.86
2023-03-04T02:42:31.382Z,0.84
2023-03-04T02:46:41.903Z,0.82
2023-03-04T02:50:52.368Z,0.85
2023-03-04T02:55:00.316Z,0.88
2023-03-04T02:59:09.895Z,0.91
2023-03-04T03:03:17.912Z,0.90
2023-03-04T03:07:25.758Z,0.89
2023-03-04T03:11:33.975Z,0.92
2023-03-04T03:15:42.575Z,0.97
2023-03-04T03:19:50.587Z,0.98
2023-03-04T03:23:58.374Z,0.97
2023-03-04T03:28:05.916Z,0.96
2023-03-04T03:32:13.574Z,0.98
2023-03-04T03:36:21.483Z,1.03
2023-03-04T03:40:29.851Z,1.05
2023-03-04T03:44:37.655Z,1.05
2023-03-04T03:48:45.269Z,1.03
2023-03-04T03:52:53.352Z,1.07
2023-03-04T03:57:01.585Z,1.12
2023-03-04T04:01:10.251Z,1.15
2023-03-04T04:05:18.437Z,1.16
2023-03-04T04:09:26.156Z,1.15
2023-03-04T04:13:39.345Z,1.18
2023-03-04T04:17:47.182Z,1.23
2023-03-04T04:21:55.576Z,1.25
2023-03-04T04:26:03.094Z,1.25
2023-03-04T04:30:13.472Z,1.23
2023-03-04T04:34:21.296Z,1.23
2023-03-04T04:38:29.340Z,1.26
2023-03-04T04:42:37.140Z,1.32
2023-03-04T04:46:45.362Z,1.33
2023-03-04T04:50:58.555Z,1.33
2023-03-04T04:55:07.912Z,1.32
2023-03-04T04:59:15.835Z,1.30
2023-03-04T05:03:23.812Z,1.31
2023-03-04T05:07:32.136Z,1.36
2023-03-04T05:11:40.294Z,1.40
2023-03-04T05:15:48.235Z,1.41
2023-03-04T05:19:56.320Z,1.41
2023-03-04T05:24:04.422Z,1.39
2023-03-04T05:28:12.629Z,1.42
2023-03-04T05:32:21.082Z,1.47
2023-03-04T05:36:28.823Z,1.51
2023-03-04T05:40:36.480Z,1.53
2023-03-04T05:44:44.305Z,1.53
2023-03-04T05:48:52.313Z,1.54
2023-03-04T05:53:00.819Z,1.59
2023-03-04T05:57:08.629Z,1.65
2023-03-04T06:01:16.761Z,1.68
2023-03-04T06:05:25.987Z,1.69
2023-03-04T06:09:33.790Z,1.69
2023-03-04T06:13:42.414Z,1.69
2023-03-04T06:17:50.013Z,1.73
2023-03-04T06:21:57.651Z,1.77
2023-03-04T06:26:12.471Z,1.80
2023-03-04T06:30:21.043Z,1.81
2023-03-04T06:34:30.067Z,1.79
2023-03-04T06:38:37.698Z,1.79
2023-03-04T06:42:46.019Z,1.83
2023-03-04T06:46:56.240Z,1.87
2023-03-04T06:51:10.448Z,1.89
2023-03-04T06:55:19.970Z,1.88
2023-03-04T06:59:29.019Z,1.87
2023-03-04T07:03:37.440Z,1.84
2023-03-04T07:07:45.342Z,1.86
2023-03-04T07:11:53.287Z,1.89
2023-03-04T07:16:03.151Z,1.91
2023-03-04T07:20:13.473Z,1.91
2023-03-04T07:24:21.712Z,1.91
2023-03-04T07:28:29.258Z,1.95
2023-03-04T07:32:37.325Z,1.99
2023-03-04T07:36:47.811Z,2.02
2023-03-04T07:41:04.250Z,2.04
2023-03-04T07:45:13.618Z,2.04
2023-03-04T07:49:21.439Z,2.03
2023-03-04T07:53:29.546Z,2.06
2023-03-04T07:57:37.206Z,2.12
2023-03-04T08:01:45.791Z,2.14
2023-03-04T08:05:54.038Z,2.16
2023-03-04T08:10:01.695Z,2.18
2023-03-04T08:14:12.660Z,2.18
2023-03-04T08:18:20.761Z,2.19
2023-03-04T08:22:28.933Z,2.24
2023-03-04T08:26:41.938Z,2.32
2023-03-04T08:30:57.045Z,2.39
2023-03-04T08:35:05.467Z,2.45
2023-03-04T08:39:16.042Z,2.48
2023-03-04T08:43:29.735Z,2.51
2023-03-04T08:47:38.843Z,2.55
2023-03-04T08:51:47.128Z,2.60
2023-03-04T08:55:55.600Z,2.70
2023-03-04T09:00:05.488Z,2.80
2023-03-04T09:04:14.408Z,2.88
2023-03-04T09:08:23.928Z,2.90
2023-03-04T09:12:31.468Z,2.94
2023-03-04T09:16:39.151Z,2.99
2023-03-04T09:20:48.038Z,3.08
2023-03-04T09:24:56.370Z,3.14
2023-03-04T09:29:05.946Z,3.18
2023-03-04T09:33:14.206Z,3.22
2023-03-04T09:37:24.471Z,3.22
2023-03-04T09:41:38.215Z,3.26
2023-03-04T09:45:50.807Z,3.33
2023-03-04T09:50:01.488Z,3.42
2023-03-04T09:54:12.491Z,3.44
2023-03-04T09:58:28.534Z,3.47
2023-03-04T10:02:45.350Z,3.53
2023-03-04T10:06:55.168Z,3.59
2023-03-04T10:11:05.364Z,3.72
2023-03-04T10:15:25.505Z,3.88
2023-03-04T10:19:38.276Z,3.98
2023-03-04T10:23:46.397Z,4.03
2023-03-04T10:27:58.030Z,4.11
2023-03-04T10:32:05.611Z,4.16
2023-03-04T10:36:27.761Z,4.20
2023-03-04T10:40:41.686Z,4.24
2023-03-04T10:44:57.391Z,4.23
2023-03-04T10:49:04.991Z,4.22
2023-03-04T10:53:28.776Z,4.23
2023-03-04T10:57:40.109Z,4.30
2023-03-04T11:01:48.379Z,4.40
2023-03-04T11:06:13.309Z,4.44
2023-03-04T11:10:25.522Z,4.52
2023-03-04T11:14:36.899Z,4.57
2023-03-04T11:18:49.899Z,4.59
2023-03-04T11:23:04.464Z,4.58
2023-03-04T11:27:19.181Z,4.63
2023-03-04T11:31:32.652Z,4.64
2023-03-04T11:35:46.309Z,4.63
2023-03-04T11:39:59.314Z,4.60
2023-03-04T11:44:11.072Z,4.64
2023-03-04T11:48:28.379Z,4.69
2023-03-04T11:52:52.408Z,4.71
2023-03-04T11:57:06.854Z,4.75
2023-03-04T12:01:19.846Z,4.84
2023-03-04T12:05:47.688Z,4.87
2023-03-04T12:10:04.943Z,4.89
2023-03-04T12:14:23.077Z,4.95
2023-03-04T12:18:54.636Z,4.94
2023-03-04T12:23:12.651Z,4.94
2023-03-04T12:27:26.121Z,4.95
2023-03-04T12:31:40.754Z,4.97
2023-03-04T12:35:57.141Z,4.96
2023-03-04T12:40:17.668Z,4.93
2023-03-04T12:44:26.880Z,4.93
2023-03-04T12:48:36.970Z,4.94
2023-03-04T12:52:50.704Z,4.99
2023-03-04T12:57:02.137Z,5.05
2023-03-04T13:01:16.116Z,5.06
2023-03-04T13:05:46.520Z,5.06
2023-03-04T13:09:59.043Z,5.05
2023-03-04T13:14:07.893Z,5.08
2023-03-04T13:18:34.337Z,5.12
2023-03-04T13:22:56.716Z,5.11
2023-03-04T13:27:05.576Z,5.11
2023-03-04T13:31:24.767Z,5.13
2023-03-04T13:36:04.150Z,5.21
2023-03-04T13:40:37.839Z,5.32
2023-03-04T13:45:30.318Z,5.40
2023-03-04T13:49:39.680Z,5.47
2023-03-04T13:53:50.109Z,5.49
2023-03-04T13:57:59.449Z,5.42
2023-03-04T14:02:15.941Z,5.38
2023-03-04T14:06:26.436Z,5.35
2023-03-04T14:10:34.378Z,5.31
2023-03-04T14:14:47.571Z,5.30
2023-03-04T14:19:02.794Z,5.35
2023-03-04T14:23:28.539Z,5.36
2023-03-04T14:27:38.392Z,5.35
2023-03-04T14:31:46.387Z,5.36
2023-03-04T14:35:56.810Z,5.33
2023-03-04T14:40:06.610Z,5.28
2023-03-04T14:44:18.597Z,5.24
2023-03-04T14:48:32.301Z,5.22
2023-03-04T14:52:42.129Z,5.20
2023-03-04T14:56:49.728Z,5.16
2023-03-04T15:01:10.183Z,5.11
2023-03-04T15:05:25.909Z,5.07
2023-03-04T15:09:35.052Z,5.06
2023-03-04T15:13:44.359Z,5.06
2023-03-04T15:18:01.262Z,5.06
2023-03-04T15:22:10.154Z,5.05
2023-03-04T15:26:17.868Z,5.03
2023-03-04T15:30:28.141Z,4.99
2023-03-04T15:34:35.610Z,4.96
2023-03-04T15:38:44.257Z,4.97
2023-03-04T15:42:51.710Z,4.98
2023-03-04T15:46:59.433Z,4.98
2023-03-04T15:51:12.650Z,4.96
2023-03-04T15:55:22.668Z,4.88
2023-03-04T15:59:30.831Z,4.82
2023-03-04T16:03:38.689Z,4.77
2023-03-04T16:07:48.458Z,4.76
2023-03-04T16:12:02.114Z,4.77
2023-03-04T16:16:13.712Z,4.80
2023-03-04T16:20:25.706Z,4.80
2023-03-04T16:24:36.244Z,4.77
2023-03-04T16:28:47.007Z,4.73
2023-03-04T16:32:55.217Z,4.69
2023-03-04T16:37:08.142Z,4.67
2023-03-04T16:41:19.050Z,4.66
2023-03-04T16:45:30.435Z,4.66
2023-03-04T16:49:38.294Z,4.64
2023-03-04T16:53:49.054Z,4.60
2023-03-04T16:58:08.368Z,4.54
2023-03-04T17:02:18.893Z,4.53
2023-03-04T17:06:28.444Z,4.56
2023-03-04T17:10:36.187Z,4.55
2023-03-04T17:14:43.893Z,4.52
2023-03-04T17:18:51.553Z,4.50
2023-03-04T17:23:00.298Z,4.47
2023-03-04T17:27:11.559Z,4.48
2023-03-04T17:31:22.052Z,4.50
2023-03-04T17:35:31.191Z,4.51
2023-03-04T17:39:38.965Z,4.48
2023-03-04T17:43:48.690Z,4.43
2023-03-04T17:47:57.050Z,4.40
2023-03-04T17:52:09.334Z,4.42
2023-03-04T17:56:17.676Z,4.47
2023-03-04T18:00:26.000Z,4.48
2023-03-04T18:04:34.277Z,4.46
2023-03-04T18:08:42.983Z,4.42
2023-03-04T18:12:51.043Z,4.39
2023-03-04T18:16:59.845Z,4.35
2023-03-04T18:21:08.327Z,4.38
2023-03-04T18:25:17.172Z,4.41
2023-03-04T18:29:24.810Z,4.42
2023-03-04T18:33:33.831Z,4.40
2023-03-04T18:37:42.375Z,4.37
2023-03-04T18:41:50.683Z,4.32
2023-03-04T18:46:07.333Z,4.33
2023-03-04T18:50:15.787Z,4.35
2023-03-04T18:54:23.380Z,4.33
2023-03-04T18:58:33.171Z,4.30
2023-03-04T19:02:43.853Z,4.25
2023-03-04T19:06:52.081Z,4.20
2023-03-04T19:11:00.401Z,4.17
2023-03-04T19:15:10.427Z,4.18
2023-03-04T19:19:18.732Z,4.21
2023-03-04T19:23:27.794Z,4.23
2023-03-04T19:27:35.554Z,4.22
2023-03-04T19:31:44.264Z,4.19
2023-03-04T19:35:52.415Z,4.15
2023-03-04T19:40:00.169Z,4.10
2023-03-04T19:44:12.184Z,4.07
2023-03-04T19:48:20.718Z,4.03
2023-03-04T19:52:29.057Z,4.02
2023-03-04T19:56:37.282Z,4.05
2023-03-04T20:00:45.428Z,4.03
2023-03-04T20:04:54.744Z,3.87
2023-03-04T20:09:03.423Z,3.60
2023-03-04T20:13:12.584Z,3.38
2023-03-04T20:17:20.216Z,3.25
2023-03-04T20:21:31.235Z,3.05
2023-03-04T20:25:40.166Z,2.84
2023-03-04T20:29:49.725Z,2.72
2023-03-04T20:33:58.052Z,2.67
2023-03-04T20:38:05.919Z,2.64
2023-03-04T20:42:13.527Z,2.56
2023-03-04T20:46:33.929Z,2.51
2023-03-04T20:50:42.173Z,2.55
2023-03-04T20:54:50.161Z,2.58
2023-03-04T20:58:59.601Z,2.58
2023-03-04T21:03:07.851Z,2.57
2023-03-04T21:07:15.366Z,2.57
2023-03-04T21:11:23.998Z,2.58
2023-03-04T21:15:32.192Z,2.55
2023-03-04T21:19:43.345Z,2.50
2023-03-04T21:23:51.898Z,2.45
2023-03-04T21:27:59.697Z,2.39
2023-03-04T21:32:22.765Z,2.36
2023-03-04T21:36:32.696Z,2.39
2023-03-04T21:40:42.956Z,2.38
2023-03-04T21:44:51.963Z,2.35
2023-03-04T21:49:00.179Z,2.30
2023-03-04T21:53:08.276Z,2.31
2023-03-04T21:57:17.638Z,2.34
2023-03-04T22:01:27.532Z,2.35
2023-03-04T22:05:35.853Z,2.31
2023-03-04T22:09:43.957Z,2.29
2023-03-04T22:13:55.824Z,2.25
2023-03-04T22:18:03.561Z,2.27
2023-03-04T22:22:12.087Z,2.29
2023-03-04T22:26:23.651Z,2.30
2023-03-04T22:30:31.829Z,2.28
2023-03-04T22:34:40.643Z,2.24
2023-03-04T22:38:48.361Z,2.21
2023-03-04T22:42:56.263Z,2.22
2023-03-04T22:47:04.392Z,2.23
2023-03-04T22:51:13.343Z,2.30
2023-03-04T22:55:23.900Z,2.35
2023-03-04T22:59:31.440Z,2.35
2023-03-04T23:03:41.066Z,2.34
2023-03-04T23:07:50.623Z,2.31
2023-03-04T23:11:59.677Z,2.25
2023-03-04T23:16:09.768Z,2.20
2023-03-04T23:20:20.696Z,2.24
2023-03-04T23:24:28.393Z,2.30
2023-03-04T23:28:37.777Z,2.34
2023-03-04T23:32:46.607Z,2.33
2023-03-04T23:36:55.011Z,2.32
2023-03-04T23:41:02.884Z,2.29
2023-03-04T23:45:12.246Z,2.25
2023-03-04T23:49:20.536Z,2.17
2023-03-04T23:53:28.939Z,2.07
2023-03-04T23:57:36.557Z,2.05
